Willcox, AZ (85643)

2:28 PM MST on March 01, 2015 (GMT -0700)
14 miles North West of Willcox | Change Station
CLOSE
Current Station
Personal Weather Station
Location: Willcox, AZ
Elevation: 4275 ft
Nearby Weather Stations

Elev 4275 ft 32.38 °N, 109.95 °W | Updated 5 seconds ago

Clear
Clear
67.8 °F
Feels Like 67.8 °F
N
11.0
Wind Variable Wind from SSW
Gusts 14.0 mph

Today
High -- | Low -- °F
--% Chance of Precip.
Yesterday
High -- | Low -- °F
Precip. -- in
6:47 AM 6:16 PM
Waxing Gibbous, 87% visible
Pressure 29.84 in
Visibility 10.0 miles
Clouds Clear
Dew Point 30 °F
Humidity 24%
Rainfall 0.02 in
Snow Depth Not available.
UV 7 out of 12
Pollen 8.90 out of 12
Air Quality Not available.
Flu Activity Not available.
METAR KSAD 012051Z AUTO 18015G22KT 10SM CLR 24/M03 A2994 RMK AO2 SLP104 T02391033 56028

More Conditions Fewer Conditions

Pressure 29.84 in
Visibility 10.0 miles
Clouds Clear
Dew Point 30 °F
Humidity 24%
Rainfall 0.02 in
Snow Depth Not available.
UV 7 out of 12
Pollen 8.90 out of 12
Air Quality Not available.
Flu Activity Not available.
METAR KSAD 012051Z AUTO 18015G22KT 10SM CLR 24/M03 A2994 RMK AO2 SLP104 T02391033 56028

More Conditions Fewer Conditions

10-Day Weather Forecast

Almanac

Astronomy

Mar. 01, 2015 Rise Set
Actual Time
Civil Twilight
Nautical Twilight
Astronomical Twilight
Moon
Length of Visible Light
Length of Day
Tomorrow will be .
, % of the Moon is Illuminated

Today's Extremes

State Highs State Lows

Community

WunderPhotos

Upload Photos

1,801,563 photos uploaded!

WunderBlogs® & News

Nearby

Air Quality

  Air Quality AQ Index Pollutant
Not available.

Snow Depth

Station Depth Elevation

Earthquake Activity

City Distance Mag. Time & Date
Minimum magnitude displayed is 2.5.

Coastal Water Temperatures

Place Temperature

Nearby Weather Stations